sensor_id;sensor_type;location;lat;lon;timestamp;P1;durP1;ratioP1;P2;durP2;ratioP2
3417;SDS011;68007;51.312;12.372;2023-07-16T00:01:38;11.77;;;4.03;;
3417;SDS011;68007;51.312;12.372;2023-07-16T00:04:05;7.33;;;3.73;;
3417;SDS011;68007;51.312;12.372;2023-07-16T00:06:33;7.80;;;4.00;;
3417;SDS011;68007;51.312;12.372;2023-07-16T00:09:02;4.53;;;3.20;;
3417;SDS011;68007;51.312;12.372;2023-07-16T00:11:30;19.73;;;3.67;;
3417;SDS011;68007;51.312;12.372;2023-07-16T00:13:57;5.93;;;3.27;;
3417;SDS011;68007;51.312;12.372;2023-07-16T00:16:25;4.60;;;3.07;;
3417;SDS011;68007;51.312;12.372;2023-07-16T00:18:52;3.07;;;2.40;;
3417;SDS011;68007;51.312;12.372;2023-07-16T00:21:19;5.03;;;2.73;;
3417;SDS011;68007;51.312;12.372;2023-07-16T00:23:47;4.90;;;2.67;;
3417;SDS011;68007;51.312;12.372;2023-07-16T00:26:16;6.27;;;2.30;;
3417;SDS011;68007;51.312;12.372;2023-07-16T00:28:43;5.63;;;2.47;;
3417;SDS011;68007;51.312;12.372;2023-07-16T00:31:11;4.23;;;2.90;;
3417;SDS011;68007;51.312;12.372;2023-07-16T00:33:38;7.87;;;3.00;;
3417;SDS011;68007;51.312;12.372;2023-07-16T00:36:06;5.93;;;2.70;;
3417;SDS011;68007;51.312;12.372;2023-07-16T00:38:33;9.53;;;2.80;;
3417;SDS011;68007;51.312;12.372;2023-07-16T00:41:01;4.63;;;2.60;;
3417;SDS011;68007;51.312;12.372;2023-07-16T00:43:30;18.23;;;3.13;;
3417;SDS011;68007;51.312;12.372;2023-07-16T00:45:57;6.50;;;2.97;;
3417;SDS011;68007;51.312;12.372;2023-07-16T00:48:25;7.33;;;2.73;;
3417;SDS011;68007;51.312;12.372;2023-07-16T00:50:52;5.23;;;2.60;;
3417;SDS011;68007;51.312;12.372;2023-07-16T00:53:21;4.20;;;2.30;;
3417;SDS011;68007;51.312;12.372;2023-07-16T00:55:48;6.37;;;2.80;;
3417;SDS011;68007;51.312;12.372;2023-07-16T00:58:16;6.10;;;2.90;;
3417;SDS011;68007;51.312;12.372;2023-07-16T01:00:45;8.17;;;2.87;;
3417;SDS011;68007;51.312;12.372;2023-07-16T01:03:13;10.93;;;3.13;;
3417;SDS011;68007;51.312;12.372;2023-07-16T01:05:44;5.17;;;3.00;;
3417;SDS011;68007;51.312;12.372;2023-07-16T01:08:17;3.40;;;2.67;;
3417;SDS011;68007;51.312;12.372;2023-07-16T01:10:48;7.03;;;2.80;;
3417;SDS011;68007;51.312;12.372;2023-07-16T01:13:16;6.63;;;3.30;;
3417;SDS011;68007;51.312;12.372;2023-07-16T01:15:45;7.07;;;2.43;;
3417;SDS011;68007;51.312;12.372;2023-07-16T01:18:13;7.20;;;2.80;;
3417;SDS011;68007;51.312;12.372;2023-07-16T01:20:40;4.00;;;2.53;;
3417;SDS011;68007;51.312;12.372;2023-07-16T01:23:12;7.93;;;2.77;;
3417;SDS011;68007;51.312;12.372;2023-07-16T01:26:00;4.00;;;2.20;;
3417;SDS011;68007;51.312;12.372;2023-07-16T01:28:39;3.30;;;2.30;;
3417;SDS011;68007;51.312;12.372;2023-07-16T01:31:21;4.50;;;2.20;;
3417;SDS011;68007;51.312;12.372;2023-07-16T01:33:49;6.87;;;2.70;;
3417;SDS011;68007;51.312;12.372;2023-07-16T01:36:18;4.97;;;2.70;;
3417;SDS011;68007;51.312;12.372;2023-07-16T01:38:46;2.80;;;2.30;;
3417;SDS011;68007;51.312;12.372;2023-07-16T01:41:14;3.20;;;2.80;;
3417;SDS011;68007;51.312;12.372;2023-07-16T01:43:41;5.03;;;2.73;;
3417;SDS011;68007;51.312;12.372;2023-07-16T01:46:09;3.87;;;2.40;;
3417;SDS011;68007;51.312;12.372;2023-07-16T01:48:38;5.57;;;2.30;;
3417;SDS011;68007;51.312;12.372;2023-07-16T01:51:06;4.20;;;2.20;;
3417;SDS011;68007;51.312;12.372;2023-07-16T01:53:33;5.50;;;2.30;;
3417;SDS011;68007;51.312;12.372;2023-07-16T01:56:01;5.67;;;3.07;;
3417;SDS011;68007;51.312;12.372;2023-07-16T01:58:29;2.43;;;2.07;;
3417;SDS011;68007;51.312;12.372;2023-07-16T02:00:56;4.70;;;2.83;;
3417;SDS011;68007;51.312;12.372;2023-07-16T02:03:24;3.30;;;2.30;;
3417;SDS011;68007;51.312;12.372;2023-07-16T02:05:52;3.40;;;2.23;;
3417;SDS011;68007;51.312;12.372;2023-07-16T02:08:20;5.27;;;2.33;;
3417;SDS011;68007;51.312;12.372;2023-07-16T02:10:47;3.50;;;2.40;;
3417;SDS011;68007;51.312;12.372;2023-07-16T02:13:15;5.83;;;2.50;;
3417;SDS011;68007;51.312;12.372;2023-07-16T02:15:43;3.67;;;2.63;;
3417;SDS011;68007;51.312;12.372;2023-07-16T02:18:10;4.33;;;2.83;;
3417;SDS011;68007;51.312;12.372;2023-07-16T02:20:38;4.90;;;3.47;;
3417;SDS011;68007;51.312;12.372;2023-07-16T02:23:07;8.73;;;3.00;;
3417;SDS011;68007;51.312;12.372;2023-07-16T02:25:34;3.43;;;3.13;;
3417;SDS011;68007;51.312;12.372;2023-07-16T02:28:02;4.93;;;3.13;;
3417;SDS011;68007;51.312;12.372;2023-07-16T02:30:29;3.50;;;2.93;;
3417;SDS011;68007;51.312;12.372;2023-07-16T02:32:57;4.33;;;3.27;;
3417;SDS011;68007;51.312;12.372;2023-07-16T02:35:24;3.53;;;2.80;;
3417;SDS011;68007;51.312;12.372;2023-07-16T02:37:52;6.70;;;3.53;;
3417;SDS011;68007;51.312;12.372;2023-07-16T02:40:22;4.00;;;3.13;;
3417;SDS011;68007;51.312;12.372;2023-07-16T02:42:49;6.53;;;3.50;;
3417;SDS011;68007;51.312;12.372;2023-07-16T02:45:17;4.90;;;3.10;;
3417;SDS011;68007;51.312;12.372;2023-07-16T02:47:44;3.87;;;2.83;;
3417;SDS011;68007;51.312;12.372;2023-07-16T02:50:12;3.77;;;3.27;;
3417;SDS011;68007;51.312;12.372;2023-07-16T02:52:39;6.70;;;3.60;;
3417;SDS011;68007;51.312;12.372;2023-07-16T02:55:07;6.90;;;3.20;;
3417;SDS011;68007;51.312;12.372;2023-07-16T02:57:36;8.10;;;3.40;;
3417;SDS011;68007;51.312;12.372;2023-07-16T03:00:04;3.53;;;3.10;;
3417;SDS011;68007;51.312;12.372;2023-07-16T03:02:32;7.17;;;3.30;;
3417;SDS011;68007;51.312;12.372;2023-07-16T03:05:00;6.80;;;2.90;;
3417;SDS011;68007;51.312;12.372;2023-07-16T03:07:28;4.57;;;3.07;;
3417;SDS011;68007;51.312;12.372;2023-07-16T03:09:55;5.83;;;3.30;;
3417;SDS011;68007;51.312;12.372;2023-07-16T03:12:23;4.23;;;2.87;;
3417;SDS011;68007;51.312;12.372;2023-07-16T03:14:52;4.13;;;2.83;;
3417;SDS011;68007;51.312;12.372;2023-07-16T03:17:20;6.43;;;3.27;;
3417;SDS011;68007;51.312;12.372;2023-07-16T03:19:47;5.47;;;3.30;;
3417;SDS011;68007;51.312;12.372;2023-07-16T03:22:15;7.50;;;2.70;;
3417;SDS011;68007;51.312;12.372;2023-07-16T03:24:42;5.00;;;2.80;;
3417;SDS011;68007;51.312;12.372;2023-07-16T03:27:10;5.83;;;3.30;;
3417;SDS011;68007;51.312;12.372;2023-07-16T03:29:37;4.77;;;2.97;;
3417;SDS011;68007;51.312;12.372;2023-07-16T03:32:07;4.83;;;2.87;;
3417;SDS011;68007;51.312;12.372;2023-07-16T03:34:34;5.27;;;3.20;;
3417;SDS011;68007;51.312;12.372;2023-07-16T03:37:02;4.97;;;3.00;;
3417;SDS011;68007;51.312;12.372;2023-07-16T03:39:30;5.83;;;3.43;;
3417;SDS011;68007;51.312;12.372;2023-07-16T03:41:57;4.20;;;2.63;;
3417;SDS011;68007;51.312;12.372;2023-07-16T03:44:25;3.60;;;2.80;;
3417;SDS011;68007;51.312;12.372;2023-07-16T03:46:52;3.90;;;2.73;;
3417;SDS011;68007;51.312;12.372;2023-07-16T03:49:21;4.43;;;2.87;;
3417;SDS011;68007;51.312;12.372;2023-07-16T03:51:48;4.70;;;3.30;;
3417;SDS011;68007;51.312;12.372;2023-07-16T03:54:16;3.63;;;2.80;;
3417;SDS011;68007;51.312;12.372;2023-07-16T03:56:43;3.43;;;2.57;;
3417;SDS011;68007;51.312;12.372;2023-07-16T03:59:11;3.70;;;2.50;;
3417;SDS011;68007;51.312;12.372;2023-07-16T04:01:38;4.03;;;2.60;;
3417;SDS011;68007;51.312;12.372;2023-07-16T04:04:06;6.10;;;2.77;;
3417;SDS011;68007;51.312;12.372;2023-07-16T04:06:35;12.53;;;3.10;;
3417;SDS011;68007;51.312;12.372;2023-07-16T04:09:02;2.80;;;2.60;;
3417;SDS011;68007;51.312;12.372;2023-07-16T04:11:30;4.57;;;2.37;;
3417;SDS011;68007;51.312;12.372;2023-07-16T04:13:57;7.53;;;3.20;;
3417;SDS011;68007;51.312;12.372;2023-07-16T04:16:25;6.00;;;2.97;;
3417;SDS011;68007;51.312;12.372;2023-07-16T04:18:52;3.60;;;2.80;;
3417;SDS011;68007;51.312;12.372;2023-07-16T04:21:20;4.30;;;2.67;;
3417;SDS011;68007;51.312;12.372;2023-07-16T04:23:49;3.73;;;2.90;;
3417;SDS011;68007;51.312;12.372;2023-07-16T04:26:16;6.30;;;2.83;;
3417;SDS011;68007;51.312;12.372;2023-07-16T04:28:44;3.37;;;2.70;;
3417;SDS011;68007;51.312;12.372;2023-07-16T04:31:11;4.50;;;3.07;;
3417;SDS011;68007;51.312;12.372;2023-07-16T04:33:39;4.80;;;2.90;;
3417;SDS011;68007;51.312;12.372;2023-07-16T04:36:06;7.60;;;2.83;;
3417;SDS011;68007;51.312;12.372;2023-07-16T04:38:34;5.40;;;2.83;;
3417;SDS011;68007;51.312;12.372;2023-07-16T04:41:02;3.97;;;2.57;;
3417;SDS011;68007;51.312;12.372;2023-07-16T04:43:30;5.70;;;2.63;;
3417;SDS011;68007;51.312;12.372;2023-07-16T04:45:57;3.40;;;2.50;;
3417;SDS011;68007;51.312;12.372;2023-07-16T04:48:25;3.93;;;2.30;;
3417;SDS011;68007;51.312;12.372;2023-07-16T04:50:53;3.53;;;2.50;;
3417;SDS011;68007;51.312;12.372;2023-07-16T04:53:21;4.80;;;2.50;;
3417;SDS011;68007;51.312;12.372;2023-07-16T04:55:49;7.00;;;3.27;;
3417;SDS011;68007;51.312;12.372;2023-07-16T04:58:18;3.70;;;2.53;;
3417;SDS011;68007;51.312;12.372;2023-07-16T05:00:45;6.27;;;2.43;;
3417;SDS011;68007;51.312;12.372;2023-07-16T05:03:12;3.77;;;2.30;;
3417;SDS011;68007;51.312;12.372;2023-07-16T05:05:40;9.83;;;2.50;;
3417;SDS011;68007;51.312;12.372;2023-07-16T05:08:08;3.77;;;2.50;;
3417;SDS011;68007;51.312;12.372;2023-07-16T05:10:35;11.43;;;2.60;;
3417;SDS011;68007;51.312;12.372;2023-07-16T05:13:03;3.27;;;2.30;;
3417;SDS011;68007;51.312;12.372;2023-07-16T05:15:32;2.33;;;2.10;;
3417;SDS011;68007;51.312;12.372;2023-07-16T05:18:00;6.60;;;2.00;;
3417;SDS011;68007;51.312;12.372;2023-07-16T05:20:27;8.73;;;2.23;;
3417;SDS011;68007;51.312;12.372;2023-07-16T05:22:55;6.83;;;2.00;;
3417;SDS011;68007;51.312;12.372;2023-07-16T05:25:22;3.80;;;2.47;;
3417;SDS011;68007;51.312;12.372;2023-07-16T05:27:50;3.60;;;1.77;;
3417;SDS011;68007;51.312;12.372;2023-07-16T05:30:17;2.90;;;2.20;;
3417;SDS011;68007;51.312;12.372;2023-07-16T05:32:46;4.33;;;1.90;;
3417;SDS011;68007;51.312;12.372;2023-07-16T05:35:14;2.87;;;2.20;;
3417;SDS011;68007;51.312;12.372;2023-07-16T05:37:42;2.67;;;1.73;;
3417;SDS011;68007;51.312;12.372;2023-07-16T05:40:09;2.23;;;1.97;;
3417;SDS011;68007;51.312;12.372;2023-07-16T05:42:37;3.27;;;1.80;;
3417;SDS011;68007;51.312;12.372;2023-07-16T05:45:05;3.00;;;1.80;;
3417;SDS011;68007;51.312;12.372;2023-07-16T05:47:33;3.70;;;1.90;;
3417;SDS011;68007;51.312;12.372;2023-07-16T05:50:02;5.43;;;2.00;;
3417;SDS011;68007;51.312;12.372;2023-07-16T05:52:30;4.93;;;1.60;;
3417;SDS011;68007;51.312;12.372;2023-07-16T05:54:57;2.20;;;1.73;;
3417;SDS011;68007;51.312;12.372;2023-07-16T05:57:25;7.63;;;2.17;;
3417;SDS011;68007;51.312;12.372;2023-07-16T05:59:52;3.73;;;1.87;;
3417;SDS011;68007;51.312;12.372;2023-07-16T06:02:20;3.80;;;1.70;;
3417;SDS011;68007;51.312;12.372;2023-07-16T06:04:47;3.50;;;2.10;;
3417;SDS011;68007;51.312;12.372;2023-07-16T06:07:16;2.83;;;2.00;;
3417;SDS011;68007;51.312;12.372;2023-07-16T06:09:44;3.63;;;2.20;;
3417;SDS011;68007;51.312;12.372;2023-07-16T06:12:11;5.00;;;2.00;;
3417;SDS011;68007;51.312;12.372;2023-07-16T06:14:39;2.40;;;2.20;;
3417;SDS011;68007;51.312;12.372;2023-07-16T06:17:06;2.00;;;1.80;;
3417;SDS011;68007;51.312;12.372;2023-07-16T06:19:34;4.50;;;2.20;;
3417;SDS011;68007;51.312;12.372;2023-07-16T06:22:02;3.53;;;2.03;;
3417;SDS011;68007;51.312;12.372;2023-07-16T06:24:31;5.10;;;2.00;;
3417;SDS011;68007;51.312;12.372;2023-07-16T06:26:58;4.20;;;2.00;;
3417;SDS011;68007;51.312;12.372;2023-07-16T06:29:26;3.80;;;2.17;;
3417;SDS011;68007;51.312;12.372;2023-07-16T06:31:54;3.67;;;2.07;;
3417;SDS011;68007;51.312;12.372;2023-07-16T06:34:22;2.60;;;1.77;;
3417;SDS011;68007;51.312;12.372;2023-07-16T06:36:50;5.97;;;2.00;;
3417;SDS011;68007;51.312;12.372;2023-07-16T06:39:17;4.50;;;2.03;;
3417;SDS011;68007;51.312;12.372;2023-07-16T06:41:46;6.33;;;1.77;;
3417;SDS011;68007;51.312;12.372;2023-07-16T06:44:14;6.60;;;2.00;;
3417;SDS011;68007;51.312;12.372;2023-07-16T06:46:42;5.00;;;2.00;;
3417;SDS011;68007;51.312;12.372;2023-07-16T06:49:09;3.37;;;1.70;;
3417;SDS011;68007;51.312;12.372;2023-07-16T06:51:37;5.20;;;2.20;;
3417;SDS011;68007;51.312;12.372;2023-07-16T06:54:04;4.10;;;2.10;;
3417;SDS011;68007;51.312;12.372;2023-07-16T06:56:32;3.73;;;2.10;;
3417;SDS011;68007;51.312;12.372;2023-07-16T06:59:00;2.70;;;1.90;;
3417;SDS011;68007;51.312;12.372;2023-07-16T07:01:28;3.53;;;1.90;;
3417;SDS011;68007;51.312;12.372;2023-07-16T07:03:55;3.83;;;2.00;;
3417;SDS011;68007;51.312;12.372;2023-07-16T07:06:23;2.93;;;2.20;;
3417;SDS011;68007;51.312;12.372;2023-07-16T07:08:50;7.23;;;2.37;;
3417;SDS011;68007;51.312;12.372;2023-07-16T07:11:18;3.40;;;2.00;;
3417;SDS011;68007;51.312;12.372;2023-07-16T07:13:46;6.17;;;2.03;;
3417;SDS011;68007;51.312;12.372;2023-07-16T07:16:14;4.13;;;1.83;;
3417;SDS011;68007;51.312;12.372;2023-07-16T07:18:42;6.93;;;2.20;;
3417;SDS011;68007;51.312;12.372;2023-07-16T07:21:10;8.83;;;2.60;;
3417;SDS011;68007;51.312;12.372;2023-07-16T07:23:37;4.17;;;2.17;;
3417;SDS011;68007;51.312;12.372;2023-07-16T07:26:05;8.33;;;2.87;;
3417;SDS011;68007;51.312;12.372;2023-07-16T07:28:33;4.40;;;2.00;;
3417;SDS011;68007;51.312;12.372;2023-07-16T07:31:00;4.00;;;2.10;;
3417;SDS011;68007;51.312;12.372;2023-07-16T07:33:29;3.50;;;2.30;;
3417;SDS011;68007;51.312;12.372;2023-07-16T07:35:58;4.00;;;2.10;;
3417;SDS011;68007;51.312;12.372;2023-07-16T07:38:25;4.87;;;2.23;;
3417;SDS011;68007;51.312;12.372;2023-07-16T07:40:54;8.80;;;2.33;;
3417;SDS011;68007;51.312;12.372;2023-07-16T07:43:21;8.93;;;2.47;;
3417;SDS011;68007;51.312;12.372;2023-07-16T07:45:49;5.57;;;2.70;;
3417;SDS011;68007;51.312;12.372;2023-07-16T07:48:16;5.40;;;1.87;;
3417;SDS011;68007;51.312;12.372;2023-07-16T07:50:47;4.50;;;2.27;;
3417;SDS011;68007;51.312;12.372;2023-07-16T07:53:14;6.77;;;2.13;;
3417;SDS011;68007;51.312;12.372;2023-07-16T07:55:44;2.13;;;1.87;;
3417;SDS011;68007;51.312;12.372;2023-07-16T07:58:12;5.37;;;2.33;;
3417;SDS011;68007;51.312;12.372;2023-07-16T08:00:40;3.90;;;2.17;;
3417;SDS011;68007;51.312;12.372;2023-07-16T08:03:07;4.53;;;2.13;;
3417;SDS011;68007;51.312;12.372;2023-07-16T08:05:35;3.20;;;2.07;;
3417;SDS011;68007;51.312;12.372;2023-07-16T08:08:04;15.80;;;2.60;;
3417;SDS011;68007;51.312;12.372;2023-07-16T08:10:31;4.60;;;1.97;;
3417;SDS011;68007;51.312;12.372;2023-07-16T08:12:59;2.97;;;1.73;;
3417;SDS011;68007;51.312;12.372;2023-07-16T08:15:26;5.77;;;2.20;;
3417;SDS011;68007;51.312;12.372;2023-07-16T08:17:54;3.83;;;2.07;;
3417;SDS011;68007;51.312;12.372;2023-07-16T08:20:25;5.77;;;2.07;;
3417;SDS011;68007;51.312;12.372;2023-07-16T08:22:52;5.20;;;2.40;;
3417;SDS011;68007;51.312;12.372;2023-07-16T08:25:21;5.97;;;1.87;;
3417;SDS011;68007;51.312;12.372;2023-07-16T08:27:49;4.30;;;2.10;;
3417;SDS011;68007;51.312;12.372;2023-07-16T08:30:16;6.43;;;2.40;;
3417;SDS011;68007;51.312;12.372;2023-07-16T08:32:44;5.00;;;2.10;;
3417;SDS011;68007;51.312;12.372;2023-07-16T08:35:11;5.13;;;1.90;;
3417;SDS011;68007;51.312;12.372;2023-07-16T08:37:42;2.20;;;1.60;;
3417;SDS011;68007;51.312;12.372;2023-07-16T08:40:10;5.60;;;1.77;;
3417;SDS011;68007;51.312;12.372;2023-07-16T08:42:40;5.23;;;2.07;;
3417;SDS011;68007;51.312;12.372;2023-07-16T08:45:10;4.57;;;2.40;;
3417;SDS011;68007;51.312;12.372;2023-07-16T08:47:38;3.00;;;1.90;;
3417;SDS011;68007;51.312;12.372;2023-07-16T08:50:06;5.97;;;2.17;;
3417;SDS011;68007;51.312;12.372;2023-07-16T08:52:34;3.57;;;2.20;;
3417;SDS011;68007;51.312;12.372;2023-07-16T08:55:02;3.40;;;1.80;;
3417;SDS011;68007;51.312;12.372;2023-07-16T08:57:30;11.80;;;2.47;;
3417;SDS011;68007;51.312;12.372;2023-07-16T09:00:00;4.57;;;2.07;;
3417;SDS011;68007;51.312;12.372;2023-07-16T09:02:28;4.00;;;2.00;;
3417;SDS011;68007;51.312;12.372;2023-07-16T09:04:56;4.77;;;2.13;;
3417;SDS011;68007;51.312;12.372;2023-07-16T09:07:23;3.70;;;1.70;;
3417;SDS011;68007;51.312;12.372;2023-07-16T09:09:54;4.67;;;2.20;;
3417;SDS011;68007;51.312;12.372;2023-07-16T09:12:24;3.67;;;1.90;;
3417;SDS011;68007;51.312;12.372;2023-07-16T09:14:53;4.30;;;2.20;;
3417;SDS011;68007;51.312;12.372;2023-07-16T09:17:22;6.57;;;2.03;;
3417;SDS011;68007;51.312;12.372;2023-07-16T09:19:50;3.70;;;1.80;;
3417;SDS011;68007;51.312;12.372;2023-07-16T09:22:18;3.50;;;1.93;;
3417;SDS011;68007;51.312;12.372;2023-07-16T09:24:46;7.80;;;1.90;;
3417;SDS011;68007;51.312;12.372;2023-07-16T09:27:14;3.70;;;2.20;;
3417;SDS011;68007;51.312;12.372;2023-07-16T09:29:42;3.80;;;2.00;;
3417;SDS011;68007;51.312;12.372;2023-07-16T09:32:10;4.63;;;1.93;;
3417;SDS011;68007;51.312;12.372;2023-07-16T09:34:38;3.97;;;1.90;;
3417;SDS011;68007;51.312;12.372;2023-07-16T09:37:06;5.03;;;2.20;;
3417;SDS011;68007;51.312;12.372;2023-07-16T09:39:33;8.33;;;1.50;;
3417;SDS011;68007;51.312;12.372;2023-07-16T09:42:02;5.53;;;2.20;;
3417;SDS011;68007;51.312;12.372;2023-07-16T09:44:30;5.90;;;2.03;;
3417;SDS011;68007;51.312;12.372;2023-07-16T09:46:58;3.70;;;2.37;;
3417;SDS011;68007;51.312;12.372;2023-07-16T09:49:26;3.70;;;1.87;;
3417;SDS011;68007;51.312;12.372;2023-07-16T09:51:57;6.00;;;2.17;;
3417;SDS011;68007;51.312;12.372;2023-07-16T09:54:27;2.30;;;1.83;;
3417;SDS011;68007;51.312;12.372;2023-07-16T09:57:00;4.30;;;1.83;;
3417;SDS011;68007;51.312;12.372;2023-07-16T09:59:30;3.67;;;2.10;;
3417;SDS011;68007;51.312;12.372;2023-07-16T10:01:59;4.07;;;1.80;;
3417;SDS011;68007;51.312;12.372;2023-07-16T10:04:36;7.70;;;2.17;;
3417;SDS011;68007;51.312;12.372;2023-07-16T10:07:06;6.20;;;1.90;;
3417;SDS011;68007;51.312;12.372;2023-07-16T10:09:50;4.43;;;2.20;;
3417;SDS011;68007;51.312;12.372;2023-07-16T10:12:20;4.93;;;2.03;;
3417;SDS011;68007;51.312;12.372;2023-07-16T10:14:48;3.30;;;1.93;;
3417;SDS011;68007;51.312;12.372;2023-07-16T10:17:17;7.93;;;2.37;;
3417;SDS011;68007;51.312;12.372;2023-07-16T10:19:47;7.07;;;2.60;;
3417;SDS011;68007;51.312;12.372;2023-07-16T10:22:30;5.40;;;2.17;;
3417;SDS011;68007;51.312;12.372;2023-07-16T10:24:59;6.03;;;2.10;;
3417;SDS011;68007;51.312;12.372;2023-07-16T10:27:28;6.00;;;2.20;;
3417;SDS011;68007;51.312;12.372;2023-07-16T10:29:56;7.47;;;2.27;;
3417;SDS011;68007;51.312;12.372;2023-07-16T10:32:26;4.33;;;2.00;;
3417;SDS011;68007;51.312;12.372;2023-07-16T10:34:55;4.47;;;1.93;;
3417;SDS011;68007;51.312;12.372;2023-07-16T10:37:25;5.27;;;2.20;;
3417;SDS011;68007;51.312;12.372;2023-07-16T10:39:53;4.60;;;2.30;;
3417;SDS011;68007;51.312;12.372;2023-07-16T10:42:23;3.30;;;1.97;;
3417;SDS011;68007;51.312;12.372;2023-07-16T10:44:51;4.13;;;2.30;;
3417;SDS011;68007;51.312;12.372;2023-07-16T10:47:20;5.97;;;2.47;;
3417;SDS011;68007;51.312;12.372;2023-07-16T10:49:49;3.43;;;2.00;;
3417;SDS011;68007;51.312;12.372;2023-07-16T10:52:20;5.30;;;2.10;;
3417;SDS011;68007;51.312;12.372;2023-07-16T10:54:49;8.00;;;2.50;;
3417;SDS011;68007;51.312;12.372;2023-07-16T10:57:20;8.70;;;2.40;;
3417;SDS011;68007;51.312;12.372;2023-07-16T10:59:48;3.70;;;2.10;;
3417;SDS011;68007;51.312;12.372;2023-07-16T11:02:17;6.03;;;2.30;;
3417;SDS011;68007;51.312;12.372;2023-07-16T11:04:45;5.10;;;2.57;;
3417;SDS011;68007;51.312;12.372;2023-07-16T11:07:13;6.87;;;2.30;;
3417;SDS011;68007;51.312;12.372;2023-07-16T11:09:42;5.27;;;2.07;;
3417;SDS011;68007;51.312;12.372;2023-07-16T11:12:12;3.83;;;2.10;;
3417;SDS011;68007;51.312;12.372;2023-07-16T11:14:42;5.53;;;2.30;;
3417;SDS011;68007;51.312;12.372;2023-07-16T11:17:11;6.33;;;2.50;;
3417;SDS011;68007;51.312;12.372;2023-07-16T11:19:40;2.80;;;1.80;;
3417;SDS011;68007;51.312;12.372;2023-07-16T11:22:11;3.43;;;2.30;;
3417;SDS011;68007;51.312;12.372;2023-07-16T11:24:39;4.27;;;2.23;;
3417;SDS011;68007;51.312;12.372;2023-07-16T11:27:13;4.80;;;2.30;;
3417;SDS011;68007;51.312;12.372;2023-07-16T11:29:45;2.47;;;1.87;;
3417;SDS011;68007;51.312;12.372;2023-07-16T11:32:13;4.07;;;2.00;;
3417;SDS011;68007;51.312;12.372;2023-07-16T11:34:52;3.93;;;2.20;;
3417;SDS011;68007;51.312;12.372;2023-07-16T11:37:20;5.27;;;2.20;;
3417;SDS011;68007;51.312;12.372;2023-07-16T11:39:48;5.40;;;2.43;;
3417;SDS011;68007;51.312;12.372;2023-07-16T11:42:23;4.47;;;2.20;;
3417;SDS011;68007;51.312;12.372;2023-07-16T11:44:54;7.47;;;2.90;;
3417;SDS011;68007;51.312;12.372;2023-07-16T11:47:22;3.27;;;2.13;;
3417;SDS011;68007;51.312;12.372;2023-07-16T11:49:50;4.10;;;2.10;;
3417;SDS011;68007;51.312;12.372;2023-07-16T11:52:20;4.47;;;2.10;;
3417;SDS011;68007;51.312;12.372;2023-07-16T11:54:50;3.47;;;2.40;;
3417;SDS011;68007;51.312;12.372;2023-07-16T11:57:18;3.43;;;2.50;;
3417;SDS011;68007;51.312;12.372;2023-07-16T11:59:47;3.73;;;2.00;;
3417;SDS011;68007;51.312;12.372;2023-07-16T12:02:14;4.33;;;2.60;;
3417;SDS011;68007;51.312;12.372;2023-07-16T12:04:42;4.03;;;2.40;;
3417;SDS011;68007;51.312;12.372;2023-07-16T12:07:10;5.73;;;2.40;;
3417;SDS011;68007;51.312;12.372;2023-07-16T12:09:37;5.30;;;1.90;;
3417;SDS011;68007;51.312;12.372;2023-07-16T12:12:05;4.03;;;2.00;;
3417;SDS011;68007;51.312;12.372;2023-07-16T12:14:33;3.10;;;2.00;;
3417;SDS011;68007;51.312;12.372;2023-07-16T12:17:02;4.87;;;2.10;;
3417;SDS011;68007;51.312;12.372;2023-07-16T12:19:30;4.57;;;2.00;;
3417;SDS011;68007;51.312;12.372;2023-07-16T12:21:57;2.27;;;1.77;;
3417;SDS011;68007;51.312;12.372;2023-07-16T12:24:26;4.20;;;2.17;;
3417;SDS011;68007;51.312;12.372;2023-07-16T12:26:53;3.90;;;2.43;;
3417;SDS011;68007;51.312;12.372;2023-07-16T12:29:21;4.17;;;2.13;;
3417;SDS011;68007;51.312;12.372;2023-07-16T12:31:49;4.00;;;2.00;;
3417;SDS011;68007;51.312;12.372;2023-07-16T12:34:18;2.37;;;1.90;;
3417;SDS011;68007;51.312;12.372;2023-07-16T12:36:45;11.03;;;2.83;;
3417;SDS011;68007;51.312;12.372;2023-07-16T12:39:13;2.80;;;1.80;;
3417;SDS011;68007;51.312;12.372;2023-07-16T12:41:41;2.50;;;2.20;;
3417;SDS011;68007;51.312;12.372;2023-07-16T12:44:09;4.37;;;2.40;;
3417;SDS011;68007;51.312;12.372;2023-07-16T12:46:36;5.30;;;2.73;;
3417;SDS011;68007;51.312;12.372;2023-07-16T12:49:04;5.33;;;2.53;;
3417;SDS011;68007;51.312;12.372;2023-07-16T12:51:33;3.30;;;2.23;;
3417;SDS011;68007;51.312;12.372;2023-07-16T12:54:00;8.50;;;2.33;;
3417;SDS011;68007;51.312;12.372;2023-07-16T12:56:28;3.33;;;2.33;;
3417;SDS011;68007;51.312;12.372;2023-07-16T12:58:56;4.60;;;2.13;;
3417;SDS011;68007;51.312;12.372;2023-07-16T13:01:24;5.07;;;2.90;;
3417;SDS011;68007;51.312;12.372;2023-07-16T13:03:51;4.00;;;2.37;;
3417;SDS011;68007;51.312;12.372;2023-07-16T13:06:19;4.03;;;2.57;;
3417;SDS011;68007;51.312;12.372;2023-07-16T13:08:47;2.87;;;2.37;;
3417;SDS011;68007;51.312;12.372;2023-07-16T13:11:15;2.73;;;2.10;;
3417;SDS011;68007;51.312;12.372;2023-07-16T13:13:43;4.60;;;2.30;;
3417;SDS011;68007;51.312;12.372;2023-07-16T13:16:10;4.80;;;2.57;;
3417;SDS011;68007;51.312;12.372;2023-07-16T13:18:38;4.77;;;2.70;;
3417;SDS011;68007;51.312;12.372;2023-07-16T13:21:05;4.53;;;2.20;;
3417;SDS011;68007;51.312;12.372;2023-07-16T13:23:33;4.97;;;2.60;;
3417;SDS011;68007;51.312;12.372;2023-07-16T13:26:02;4.43;;;2.50;;
3417;SDS011;68007;51.312;12.372;2023-07-16T13:28:30;5.40;;;3.03;;
3417;SDS011;68007;51.312;12.372;2023-07-16T13:30:58;5.93;;;2.57;;
3417;SDS011;68007;51.312;12.372;2023-07-16T13:33:26;3.80;;;2.13;;
3417;SDS011;68007;51.312;12.372;2023-07-16T13:35:53;5.13;;;2.90;;
3417;SDS011;68007;51.312;12.372;2023-07-16T13:38:22;6.13;;;3.03;;
3417;SDS011;68007;51.312;12.372;2023-07-16T13:40:50;4.87;;;2.40;;
3417;SDS011;68007;51.312;12.372;2023-07-16T13:43:19;7.53;;;3.30;;
3417;SDS011;68007;51.312;12.372;2023-07-16T13:45:46;5.10;;;2.50;;
3417;SDS011;68007;51.312;12.372;2023-07-16T13:48:14;4.03;;;2.70;;
3417;SDS011;68007;51.312;12.372;2023-07-16T13:50:41;5.57;;;2.90;;
3417;SDS011;68007;51.312;12.372;2023-07-16T13:53:09;5.10;;;2.60;;
3417;SDS011;68007;51.312;12.372;2023-07-16T13:55:36;3.40;;;2.40;;
3417;SDS011;68007;51.312;12.372;2023-07-16T13:58:04;5.00;;;2.80;;
3417;SDS011;68007;51.312;12.372;2023-07-16T14:00:33;3.70;;;3.03;;
3417;SDS011;68007;51.312;12.372;2023-07-16T14:03:00;5.13;;;2.77;;
3417;SDS011;68007;51.312;12.372;2023-07-16T14:05:29;3.07;;;2.33;;
3417;SDS011;68007;51.312;12.372;2023-07-16T14:08:00;5.43;;;3.40;;
3417;SDS011;68007;51.312;12.372;2023-07-16T14:10:27;4.23;;;2.50;;
3417;SDS011;68007;51.312;12.372;2023-07-16T14:12:55;4.17;;;2.90;;
3417;SDS011;68007;51.312;12.372;2023-07-16T14:15:22;6.20;;;3.03;;
3417;SDS011;68007;51.312;12.372;2023-07-16T14:17:51;4.20;;;2.60;;
3417;SDS011;68007;51.312;12.372;2023-07-16T14:20:19;5.50;;;2.93;;
3417;SDS011;68007;51.312;12.372;2023-07-16T14:22:46;9.63;;;2.77;;
3417;SDS011;68007;51.312;12.372;2023-07-16T14:25:14;6.90;;;2.67;;
3417;SDS011;68007;51.312;12.372;2023-07-16T14:27:41;5.50;;;2.70;;
3417;SDS011;68007;51.312;12.372;2023-07-16T14:30:09;7.00;;;2.87;;
3417;SDS011;68007;51.312;12.372;2023-07-16T14:32:37;5.50;;;2.77;;
3417;SDS011;68007;51.312;12.372;2023-07-16T14:35:07;6.33;;;3.03;;
3417;SDS011;68007;51.312;12.372;2023-07-16T14:37:34;3.10;;;2.20;;
3417;SDS011;68007;51.312;12.372;2023-07-16T14:40:02;4.40;;;2.77;;
3417;SDS011;68007;51.312;12.372;2023-07-16T14:42:31;7.87;;;3.00;;
3417;SDS011;68007;51.312;12.372;2023-07-16T14:44:59;6.13;;;3.03;;
3417;SDS011;68007;51.312;12.372;2023-07-16T14:47:26;6.87;;;3.17;;
3417;SDS011;68007;51.312;12.372;2023-07-16T14:49:53;3.60;;;2.83;;
3417;SDS011;68007;51.312;12.372;2023-07-16T14:52:22;3.80;;;2.80;;
3417;SDS011;68007;51.312;12.372;2023-07-16T14:54:50;3.80;;;2.67;;